Fort Chipewyan Airport
CYPY : now visible

Airfield :











YOU CAN JOIN US ON...

 
LOGIN :

Register | Disclaimer

   EN    FR    IT 

 









Legend :    VFR   Marginal VFR   IFR   Intensive IFR   Very Intensive IFR
Visi :
Ceiling :
>= 8 km
>= 3000ft
5 to 8 km
1000 to 3000 ft
1500m to 5 km
500 to 1000 ft
800 to 1500m
200 to 500 ft
< 800m
< 200 ft
Symbols :   Thunderstorms  Fog  Heavy snow  Heavy precipitations  Wind > 20 kt






- Airport Elevation : 761 ft
- IATA code : YPY


CYPY - Fort Chipewyan

CURRENT METAR :
  • 270358Z AUTO 00000KT 9SM SCT012 OVC026 08/07 A2968 RMK SLP062

EXPIRED METARs :
  • 270300Z AUTO 04004KT 9SM SCT008 BKN019 BKN026 OVC048 08/07 A2967 RMK SLP057
  • 270257Z AUTO 05004KT 9SM SCT008 BKN021 BKN029 OVC048 08/07 A2967 RMK SLP057
  • 270245Z AUTO 02005KT 9SM SCT019 BKN026 BKN031 OVC048 08/07 A2966 RMK SLP055
  • 270234Z AUTO 01005KT 9SM SCT019 OVC024 08/07 A2966 RMK SLP054
  • 270229Z AUTO 02003KT 9SM FEW013 SCT019 OVC026 08/08 A2965 RMK SLP053
  • 270221Z AUTO 01003KT 9SM BKN019 OVC026 08/07 A2965 RMK SLP052
  • 270214Z AUTO 36003KT 320V020 6SM BR SCT019 OVC026 08/07 A2965 RMK SLP051
  • 270203Z AUTO 36004KT 340V040 5SM BR BKN020 BKN025 OVC031 09/07 A2964 RMK SLP050
  • 270143Z AUTO 03002KT 6SM BR BKN020 OVC025 09/08 A2964 RMK SLP047
  • 270130Z AUTO 02003KT 5SM BR OVC019 09/07 A2963 RMK SLP045
  • 270100Z AUTO 03005KT 9SM BKN021 OVC028 09/07 A2962 RMK SLP041

TAF TAF CYPY
Valid from the 27 at 00:00 until the 27 at 06:00 UTC


262338Z 2700/2706 33005KT P6SM SCT010 BKN030
TEMPO 2700/2706 P6SM -RA OVC010 RMK FCST BASED ON AUTO OBS. NXT FCST WILL BE ISSUED AT 271145Z
CZEG FIR / North America



MET'MAP, your aeronautical weather chart ! - Copyright ORBIFLY December 2007 - Disclaimer

ORBIFLY MET'MAP TEAM :

Programming & Development : Alexandra Zaïnal
Concept & original design : Baudouin d'Aumeries
Assistance for programming : Marc-Olivier Méhu
Technical & hardware support : Manuel Goepfert

Contact : metmap@orbifly.com




SOURCES & CREDITS :

   NOAA       Earth
Advisory